createdAt,value
2022-12-11T00:04:22.901Z,26.23
2022-12-11T00:09:25.750Z,26.10
2022-12-11T00:14:27.360Z,27.63
2022-12-11T00:19:29.153Z,27.05
2022-12-11T00:24:30.848Z,29.27
2022-12-11T00:29:32.416Z,28.67
2022-12-11T00:34:34.114Z,28.73
2022-12-11T00:39:39.763Z,26.67
2022-12-11T00:44:41.589Z,25.58
2022-12-11T00:49:49.432Z,24.58
2022-12-11T00:54:51.539Z,24.00
2022-12-11T00:59:53.432Z,25.13
2022-12-11T01:04:55.361Z,22.02
2022-12-11T01:10:15.586Z,22.40
2022-12-11T01:15:17.878Z,21.88
2022-12-11T01:20:22.152Z,20.35
2022-12-11T01:25:24.719Z,21.15
2022-12-11T01:30:26.797Z,24.10
2022-12-11T01:35:28.960Z,21.65
2022-12-11T01:40:30.859Z,21.73
2022-12-11T01:45:34.972Z,22.20
2022-12-11T01:50:45.797Z,21.90
2022-12-11T01:55:51.316Z,20.60
2022-12-11T02:00:53.848Z,19.85
2022-12-11T02:05:59.821Z,18.77
2022-12-11T02:11:17.940Z,19.02
2022-12-11T02:16:23.171Z,18.90
2022-12-11T02:21:33.348Z,18.50
2022-12-11T02:31:50.524Z,17.52
2022-12-11T02:36:57.034Z,17.92
2022-12-11T02:41:59.958Z,17.73
2022-12-11T02:47:04.144Z,18.77
2022-12-11T02:52:07.280Z,19.00
2022-12-11T02:57:15.140Z,18.48
2022-12-11T03:02:17.796Z,17.85
2022-12-11T03:07:26.513Z,16.80
2022-12-11T03:12:31.384Z,17.42
2022-12-11T03:17:41.131Z,17.95
2022-12-11T03:23:12.597Z,17.17
2022-12-11T03:28:25.564Z,18.67
2022-12-11T03:33:35.764Z,17.75
2022-12-11T03:39:01.375Z,17.02
2022-12-11T03:44:03.523Z,16.20
2022-12-11T03:49:11.950Z,16.17
2022-12-11T03:54:14.397Z,15.52
2022-12-11T03:59:16.375Z,14.90
2022-12-11T04:04:18.277Z,14.20
2022-12-11T04:09:19.885Z,14.82
2022-12-11T04:14:40.056Z,15.70
2022-12-11T04:20:00.413Z,14.40
2022-12-11T04:25:05.378Z,15.25
2022-12-11T04:30:10.978Z,14.85
2022-12-11T04:35:13.644Z,14.48
2022-12-11T04:40:18.863Z,13.77
2022-12-11T04:45:20.701Z,13.18
2022-12-11T04:51:46.915Z,13.52
2022-12-11T04:56:48.501Z,13.93
2022-12-11T05:01:50.160Z,15.65
2022-12-11T05:06:52.022Z,16.40
2022-12-11T05:11:54.655Z,15.73
2022-12-11T05:16:56.278Z,15.98
2022-12-11T05:21:57.888Z,16.05
2022-12-11T05:26:59.544Z,17.38
2022-12-11T05:32:01.417Z,17.58
2022-12-11T05:37:03.286Z,16.67
2022-12-11T05:42:04.959Z,17.40
2022-12-11T05:47:06.546Z,16.83
2022-12-11T05:52:08.349Z,17.40
2022-12-11T05:57:09.941Z,18.55
2022-12-11T06:02:11.605Z,20.08
2022-12-11T06:07:13.651Z,20.05
2022-12-11T06:12:15.281Z,18.98
2022-12-11T06:17:17.059Z,19.42
2022-12-11T06:22:18.811Z,18.15
2022-12-11T06:27:20.765Z,18.23
2022-12-11T06:32:22.395Z,17.20
2022-12-11T06:37:23.967Z,17.80
2022-12-11T06:42:25.887Z,15.52
2022-12-11T06:47:29.691Z,16.65
2022-12-11T06:52:31.352Z,16.08
2022-12-11T06:57:33.500Z,16.15
2022-12-11T07:02:35.259Z,16.20
2022-12-11T07:07:37.423Z,15.90
2022-12-11T07:12:39.639Z,15.07
2022-12-11T07:17:41.274Z,14.13
2022-12-11T07:22:46.371Z,13.30
2022-12-11T07:27:48.531Z,13.07
2022-12-11T07:32:50.193Z,13.48
2022-12-11T07:37:51.831Z,11.60
2022-12-11T07:42:53.883Z,12.65
2022-12-11T07:47:55.484Z,17.48
2022-12-11T07:52:57.058Z,11.35
2022-12-11T07:57:58.634Z,13.57
2022-12-11T08:03:00.320Z,12.35
2022-12-11T08:08:02.236Z,10.45
2022-12-11T08:13:03.894Z,13.30
2022-12-11T08:18:05.731Z,14.10
2022-12-11T08:23:07.387Z,13.82
2022-12-11T08:28:09.016Z,9.75
2022-12-11T08:33:10.629Z,11.25
2022-12-11T08:38:12.351Z,10.60
2022-12-11T08:43:14.023Z,12.93
2022-12-11T08:48:15.633Z,17.00
2022-12-11T08:53:17.240Z,9.77
2022-12-11T08:58:18.834Z,11.45
2022-12-11T09:03:20.736Z,10.50
2022-12-11T09:08:22.376Z,10.80
2022-12-11T09:13:24.035Z,9.85
2022-12-11T09:18:25.735Z,9.20
2022-12-11T09:23:27.486Z,9.00
2022-12-11T09:28:29.281Z,9.13
2022-12-11T09:33:31.180Z,8.80
2022-12-11T09:38:33.496Z,7.97
2022-12-11T09:43:42.185Z,8.50
2022-12-11T09:48:47.608Z,8.07
2022-12-11T09:53:50.380Z,8.27
2022-12-11T09:59:01.578Z,9.85
2022-12-11T10:04:10.617Z,9.85
2022-12-11T10:09:58.608Z,9.32
2022-12-11T10:15:18.844Z,8.98
2022-12-11T10:20:39.067Z,8.48
2022-12-11T10:26:02.206Z,7.80
2022-12-11T10:31:27.958Z,8.35
2022-12-11T10:36:35.552Z,8.13
2022-12-11T10:41:39.711Z,8.35
2022-12-11T10:46:41.588Z,7.60
2022-12-11T10:51:44.025Z,8.10
2022-12-11T10:56:48.453Z,7.63
2022-12-11T11:01:50.766Z,7.30
2022-12-11T11:07:12.867Z,8.07
2022-12-11T11:12:27.360Z,8.48
2022-12-11T11:17:34.882Z,7.53
2022-12-11T11:22:44.331Z,8.48
2022-12-11T11:33:21.190Z,8.00
2022-12-11T11:38:26.807Z,10.13
2022-12-11T11:43:47.974Z,7.80
2022-12-11T11:49:13.878Z,7.07
2022-12-11T11:54:21.170Z,7.80
2022-12-11T11:59:39.902Z,8.73
2022-12-11T12:04:42.831Z,8.60
2022-12-11T12:09:52.404Z,7.15
2022-12-11T12:15:12.548Z,6.53
2022-12-11T12:20:23.046Z,5.93
2022-12-11T12:25:45.415Z,6.13
2022-12-11T12:30:58.459Z,6.65
2022-12-11T12:36:24.424Z,7.30
2022-12-11T12:41:49.523Z,6.63
2022-12-11T12:46:57.122Z,6.70
2022-12-11T12:51:59.377Z,6.00
2022-12-11T12:57:04.153Z,5.63
2022-12-11T13:02:06.765Z,5.50
2022-12-11T13:07:13.312Z,6.32
2022-12-11T13:12:15.926Z,5.55
2022-12-11T13:17:20.467Z,5.30
2022-12-11T13:22:24.624Z,5.65
2022-12-11T13:27:46.574Z,6.18
2022-12-11T13:33:06.985Z,5.95
2022-12-11T13:38:18.701Z,5.28
2022-12-11T13:43:32.772Z,4.95
2022-12-11T13:48:34.300Z,6.05
2022-12-11T13:53:35.964Z,5.22
2022-12-11T13:58:39.775Z,5.95
2022-12-11T14:09:07.936Z,5.88
2022-12-11T14:14:25.242Z,5.95
2022-12-11T14:19:27.812Z,9.85
2022-12-11T14:24:31.149Z,7.10
2022-12-11T14:29:34.016Z,8.30
2022-12-11T14:34:44.312Z,7.03
2022-12-11T14:40:03.752Z,7.10
2022-12-11T14:45:17.557Z,8.18
2022-12-11T14:50:31.487Z,7.93
2022-12-11T14:55:37.933Z,7.93
2022-12-11T15:00:40.015Z,12.13
2022-12-11T15:05:56.741Z,12.10
2022-12-11T15:11:09.269Z,9.40
2022-12-11T15:16:14.365Z,16.00
2022-12-11T15:21:16.846Z,5.57
2022-12-11T15:26:20.544Z,9.95
2022-12-11T15:31:28.075Z,9.13
2022-12-11T15:36:36.964Z,6.83
2022-12-11T15:41:42.096Z,10.57
2022-12-11T15:46:43.701Z,8.48
2022-12-11T15:51:45.281Z,8.20
2022-12-11T15:56:47.303Z,6.60
2022-12-11T16:01:49.271Z,6.90
2022-12-11T16:06:51.631Z,6.68
2022-12-11T16:11:53.324Z,8.50
2022-12-11T16:16:55.099Z,7.75
2022-12-11T16:21:56.943Z,13.00
2022-12-11T16:26:59.292Z,7.50
2022-12-11T16:32:00.918Z,6.80
2022-12-11T16:37:03.268Z,6.97
2022-12-11T16:42:06.557Z,10.07
2022-12-11T16:47:08.178Z,6.57
2022-12-11T16:52:09.801Z,5.65
2022-12-11T16:57:12.034Z,5.60
2022-12-11T17:02:14.004Z,5.68
2022-12-11T17:07:16.072Z,28.20
2022-12-11T17:12:17.983Z,11.00
2022-12-11T17:17:19.569Z,6.13
2022-12-11T17:22:22.120Z,7.07
2022-12-11T17:27:24.161Z,9.75
2022-12-11T17:32:25.751Z,15.60
2022-12-11T17:37:27.451Z,19.02
2022-12-11T17:42:29.272Z,9.35
2022-12-11T17:47:32.068Z,7.95
2022-12-11T17:52:35.644Z,10.77
2022-12-11T17:57:39.180Z,10.45
2022-12-11T18:02:40.830Z,40.10
2022-12-11T18:07:42.440Z,15.55
2022-12-11T18:12:44.290Z,10.60
2022-12-11T18:17:46.299Z,10.65
2022-12-11T18:22:47.926Z,10.98
2022-12-11T18:27:49.590Z,11.48
2022-12-11T18:32:52.051Z,12.43
2022-12-11T18:37:53.717Z,13.85
2022-12-11T18:42:55.755Z,15.25
2022-12-11T18:47:57.701Z,15.55
2022-12-11T18:53:00.556Z,14.68
2022-12-11T18:58:02.382Z,17.70
2022-12-11T19:03:04.215Z,17.40
2022-12-11T19:08:05.885Z,14.93
2022-12-11T19:13:07.597Z,15.90
2022-12-11T19:18:09.938Z,15.98
2022-12-11T19:23:11.605Z,15.40
2022-12-11T19:28:14.025Z,14.13
2022-12-11T19:33:16.700Z,15.10
2022-12-11T19:38:18.362Z,16.85
2022-12-11T19:43:20.176Z,15.27
2022-12-11T19:48:21.775Z,16.33
2022-12-11T19:53:23.460Z,14.95
2022-12-11T19:58:25.220Z,14.88
2022-12-11T20:03:27.622Z,15.13
2022-12-11T20:08:44.103Z,13.98
2022-12-11T20:13:47.911Z,10.37
2022-12-11T20:18:49.640Z,14.63
2022-12-11T20:23:51.280Z,15.68
2022-12-11T20:28:53.450Z,15.27
2022-12-11T20:33:56.726Z,13.98
2022-12-11T20:38:58.423Z,13.80
2022-12-11T20:44:00.127Z,14.07
2022-12-11T20:49:01.956Z,14.60
2022-12-11T20:54:03.740Z,13.50
2022-12-11T20:59:05.854Z,13.65
2022-12-11T21:04:07.508Z,15.13
2022-12-11T21:09:14.810Z,16.88
2022-12-11T21:14:18.567Z,16.50
2022-12-11T21:19:23.320Z,17.02
2022-12-11T21:24:27.577Z,16.58
2022-12-11T21:29:29.465Z,16.67
2022-12-11T21:34:31.139Z,18.45
2022-12-11T21:39:38.959Z,17.50
2022-12-11T21:50:04.285Z,16.77
2022-12-11T21:55:06.774Z,16.42
2022-12-11T22:00:09.440Z,15.35
2022-12-11T22:05:14.301Z,15.35
2022-12-11T22:10:16.183Z,16.38
2022-12-11T22:15:18.135Z,16.08
2022-12-11T22:20:19.827Z,15.65
2022-12-11T22:25:21.687Z,17.23
2022-12-11T22:30:23.491Z,17.48
2022-12-11T22:35:27.323Z,17.83
2022-12-11T22:40:29.846Z,16.88
2022-12-11T22:45:31.748Z,16.60
2022-12-11T22:50:34.344Z,15.48
2022-12-11T22:55:38.646Z,15.85
2022-12-11T23:00:41.160Z,15.93
2022-12-11T23:05:43.446Z,16.65
2022-12-11T23:10:45.444Z,13.95
2022-12-11T23:15:47.042Z,13.38
2022-12-11T23:20:49.652Z,12.38
2022-12-11T23:25:51.437Z,11.85
2022-12-11T23:30:53.319Z,10.95
2022-12-11T23:35:54.980Z,10.90
2022-12-11T23:40:59.505Z,10.57
2022-12-11T23:46:01.312Z,9.70
2022-12-11T23:51:05.402Z,10.05
2022-12-11T23:56:15.687Z,10.30
